sensor_id;sensor_type;location;lat;lon;timestamp;P1;durP1;ratioP1;P2;durP2;ratioP2
27804;SDS011;15183;51.350;11.102;2023-04-25T00:00:37;6.10;;;3.92;;
27804;SDS011;15183;51.350;11.102;2023-04-25T00:03:03;5.70;;;4.15;;
27804;SDS011;15183;51.350;11.102;2023-04-25T00:05:32;9.73;;;5.93;;
27804;SDS011;15183;51.350;11.102;2023-04-25T00:07:58;9.35;;;6.63;;
27804;SDS011;15183;51.350;11.102;2023-04-25T00:10:25;6.47;;;4.47;;
27804;SDS011;15183;51.350;11.102;2023-04-25T00:12:51;6.18;;;4.15;;
27804;SDS011;15183;51.350;11.102;2023-04-25T00:15:18;5.25;;;3.92;;
27804;SDS011;15183;51.350;11.102;2023-04-25T00:17:44;7.65;;;3.85;;
27804;SDS011;15183;51.350;11.102;2023-04-25T00:20:11;8.45;;;5.10;;
27804;SDS011;15183;51.350;11.102;2023-04-25T00:22:38;6.78;;;4.70;;
27804;SDS011;15183;51.350;11.102;2023-04-25T00:25:05;7.30;;;4.53;;
27804;SDS011;15183;51.350;11.102;2023-04-25T00:27:32;4.57;;;3.67;;
27804;SDS011;15183;51.350;11.102;2023-04-25T00:33:40;4.45;;;3.33;;
27804;SDS011;15183;51.350;11.102;2023-04-25T00:36:07;4.93;;;3.60;;
27804;SDS011;15183;51.350;11.102;2023-04-25T00:38:34;5.60;;;3.72;;
27804;SDS011;15183;51.350;11.102;2023-04-25T00:41:01;6.88;;;4.10;;
27804;SDS011;15183;51.350;11.102;2023-04-25T00:43:27;4.55;;;3.33;;
27804;SDS011;15183;51.350;11.102;2023-04-25T00:45:55;7.53;;;4.35;;
27804;SDS011;15183;51.350;11.102;2023-04-25T00:48:23;6.90;;;3.92;;
27804;SDS011;15183;51.350;11.102;2023-04-25T00:50:53;5.75;;;4.15;;
27804;SDS011;15183;51.350;11.102;2023-04-25T00:53:22;4.55;;;3.22;;
27804;SDS011;15183;51.350;11.102;2023-04-25T00:55:50;6.00;;;4.18;;
27804;SDS011;15183;51.350;11.102;2023-04-25T00:58:17;5.95;;;4.05;;
27804;SDS011;15183;51.350;11.102;2023-04-25T01:00:48;4.90;;;3.65;;
27804;SDS011;15183;51.350;11.102;2023-04-25T01:03:21;5.78;;;3.30;;
27804;SDS011;15183;51.350;11.102;2023-04-25T01:05:48;5.68;;;3.90;;
27804;SDS011;15183;51.350;11.102;2023-04-25T01:08:14;6.28;;;3.55;;
27804;SDS011;15183;51.350;11.102;2023-04-25T01:10:40;5.53;;;3.55;;
27804;SDS011;15183;51.350;11.102;2023-04-25T01:13:07;8.95;;;3.95;;
27804;SDS011;15183;51.350;11.102;2023-04-25T01:15:43;6.72;;;4.00;;
27804;SDS011;15183;51.350;11.102;2023-04-25T01:18:10;6.30;;;3.92;;
27804;SDS011;15183;51.350;11.102;2023-04-25T01:20:37;11.27;;;5.35;;
27804;SDS011;15183;51.350;11.102;2023-04-25T01:23:04;7.80;;;4.53;;
27804;SDS011;15183;51.350;11.102;2023-04-25T01:25:30;5.45;;;3.58;;
27804;SDS011;15183;51.350;11.102;2023-04-25T01:27:57;8.05;;;4.85;;
27804;SDS011;15183;51.350;11.102;2023-04-25T01:30:28;7.53;;;4.38;;
27804;SDS011;15183;51.350;11.102;2023-04-25T01:32:55;8.85;;;4.68;;
27804;SDS011;15183;51.350;11.102;2023-04-25T01:39:04;5.22;;;3.75;;
27804;SDS011;15183;51.350;11.102;2023-04-25T01:41:30;7.45;;;4.68;;
27804;SDS011;15183;51.350;11.102;2023-04-25T01:43:57;6.68;;;4.50;;
27804;SDS011;15183;51.350;11.102;2023-04-25T01:46:24;8.80;;;4.97;;
27804;SDS011;15183;51.350;11.102;2023-04-25T01:48:50;9.40;;;4.22;;
27804;SDS011;15183;51.350;11.102;2023-04-25T01:51:17;8.98;;;5.18;;
27804;SDS011;15183;51.350;11.102;2023-04-25T01:53:43;11.32;;;6.43;;
27804;SDS011;15183;51.350;11.102;2023-04-25T01:56:10;9.02;;;5.22;;
27804;SDS011;15183;51.350;11.102;2023-04-25T01:58:36;12.63;;;6.78;;
27804;SDS011;15183;51.350;11.102;2023-04-25T02:01:03;11.30;;;6.43;;
27804;SDS011;15183;51.350;11.102;2023-04-25T02:03:31;10.13;;;6.63;;
27804;SDS011;15183;51.350;11.102;2023-04-25T02:05:58;9.48;;;6.25;;
27804;SDS011;15183;51.350;11.102;2023-04-25T02:08:24;10.43;;;6.90;;
27804;SDS011;15183;51.350;11.102;2023-04-25T02:10:52;13.82;;;7.65;;
27804;SDS011;15183;51.350;11.102;2023-04-25T02:13:18;11.50;;;7.38;;
27804;SDS011;15183;51.350;11.102;2023-04-25T02:15:45;7.95;;;5.55;;
27804;SDS011;15183;51.350;11.102;2023-04-25T02:18:11;9.60;;;4.88;;
27804;SDS011;15183;51.350;11.102;2023-04-25T02:20:38;6.57;;;4.55;;
27804;SDS011;15183;51.350;11.102;2023-04-25T02:23:04;8.27;;;4.43;;
27804;SDS011;15183;51.350;11.102;2023-04-25T02:25:30;7.15;;;4.88;;
27804;SDS011;15183;51.350;11.102;2023-04-25T02:27:57;10.68;;;5.97;;
27804;SDS011;15183;51.350;11.102;2023-04-25T02:30:23;10.07;;;6.05;;
27804;SDS011;15183;51.350;11.102;2023-04-25T02:35:47;11.25;;;7.38;;
27804;SDS011;15183;51.350;11.102;2023-04-25T02:38:14;9.80;;;6.40;;
27804;SDS011;15183;51.350;11.102;2023-04-25T02:40:40;11.57;;;7.32;;
27804;SDS011;15183;51.350;11.102;2023-04-25T02:43:07;8.43;;;6.85;;
27804;SDS011;15183;51.350;11.102;2023-04-25T02:45:33;12.70;;;7.72;;
27804;SDS011;15183;51.350;11.102;2023-04-25T02:48:01;15.65;;;10.20;;
27804;SDS011;15183;51.350;11.102;2023-04-25T02:50:28;9.68;;;7.00;;
27804;SDS011;15183;51.350;11.102;2023-04-25T02:52:55;14.23;;;8.52;;
27804;SDS011;15183;51.350;11.102;2023-04-25T02:55:21;9.63;;;6.07;;
27804;SDS011;15183;51.350;11.102;2023-04-25T02:57:48;9.88;;;6.20;;
27804;SDS011;15183;51.350;11.102;2023-04-25T03:00:14;9.93;;;5.75;;
27804;SDS011;15183;51.350;11.102;2023-04-25T03:02:40;12.07;;;7.13;;
27804;SDS011;15183;51.350;11.102;2023-04-25T03:05:07;10.43;;;6.18;;
27804;SDS011;15183;51.350;11.102;2023-04-25T03:07:33;13.07;;;5.70;;
27804;SDS011;15183;51.350;11.102;2023-04-25T03:10:00;10.10;;;6.90;;
27804;SDS011;15183;51.350;11.102;2023-04-25T03:12:26;14.15;;;8.40;;
27804;SDS011;15183;51.350;11.102;2023-04-25T03:14:52;13.45;;;8.70;;
27804;SDS011;15183;51.350;11.102;2023-04-25T03:17:19;17.85;;;10.25;;
27804;SDS011;15183;51.350;11.102;2023-04-25T03:19:45;16.75;;;10.32;;
27804;SDS011;15183;51.350;11.102;2023-04-25T03:22:12;14.60;;;9.68;;
27804;SDS011;15183;51.350;11.102;2023-04-25T03:24:38;14.55;;;9.88;;
27804;SDS011;15183;51.350;11.102;2023-04-25T03:27:05;15.02;;;9.35;;
27804;SDS011;15183;51.350;11.102;2023-04-25T03:29:32;14.52;;;9.00;;
27804;SDS011;15183;51.350;11.102;2023-04-25T03:31:58;14.48;;;9.35;;
27804;SDS011;15183;51.350;11.102;2023-04-25T03:34:24;15.00;;;9.05;;
27804;SDS011;15183;51.350;11.102;2023-04-25T03:36:51;10.75;;;6.65;;
27804;SDS011;15183;51.350;11.102;2023-04-25T03:39:17;12.30;;;8.30;;
27804;SDS011;15183;51.350;11.102;2023-04-25T03:41:44;12.50;;;8.32;;
27804;SDS011;15183;51.350;11.102;2023-04-25T03:44:10;11.15;;;8.02;;
27804;SDS011;15183;51.350;11.102;2023-04-25T03:46:37;12.40;;;8.48;;
27804;SDS011;15183;51.350;11.102;2023-04-25T03:49:03;11.73;;;7.40;;
27804;SDS011;15183;51.350;11.102;2023-04-25T03:51:29;11.32;;;7.70;;
27804;SDS011;15183;51.350;11.102;2023-04-25T03:53:56;12.02;;;7.97;;
27804;SDS011;15183;51.350;11.102;2023-04-25T03:56:23;13.18;;;8.15;;
27804;SDS011;15183;51.350;11.102;2023-04-25T03:58:49;14.32;;;8.60;;
27804;SDS011;15183;51.350;11.102;2023-04-25T04:01:15;13.65;;;7.03;;
27804;SDS011;15183;51.350;11.102;2023-04-25T04:03:42;13.52;;;7.28;;
27804;SDS011;15183;51.350;11.102;2023-04-25T04:06:08;11.88;;;7.05;;
27804;SDS011;15183;51.350;11.102;2023-04-25T04:08:36;10.20;;;7.07;;
27804;SDS011;15183;51.350;11.102;2023-04-25T04:11:02;11.52;;;6.88;;
27804;SDS011;15183;51.350;11.102;2023-04-25T04:13:29;10.57;;;6.45;;
27804;SDS011;15183;51.350;11.102;2023-04-25T04:15:56;11.07;;;6.57;;
27804;SDS011;15183;51.350;11.102;2023-04-25T04:18:23;10.52;;;7.13;;
27804;SDS011;15183;51.350;11.102;2023-04-25T04:20:49;15.73;;;6.95;;
27804;SDS011;15183;51.350;11.102;2023-04-25T04:23:16;14.23;;;6.93;;
27804;SDS011;15183;51.350;11.102;2023-04-25T04:25:42;11.43;;;7.03;;
27804;SDS011;15183;51.350;11.102;2023-04-25T04:28:09;11.13;;;7.20;;
27804;SDS011;15183;51.350;11.102;2023-04-25T04:30:36;9.48;;;6.30;;
27804;SDS011;15183;51.350;11.102;2023-04-25T04:33:03;9.80;;;6.13;;
27804;SDS011;15183;51.350;11.102;2023-04-25T04:35:29;13.02;;;6.57;;
27804;SDS011;15183;51.350;11.102;2023-04-25T04:37:55;9.10;;;6.32;;
27804;SDS011;15183;51.350;11.102;2023-04-25T04:40:22;10.35;;;6.45;;
27804;SDS011;15183;51.350;11.102;2023-04-25T04:42:48;12.82;;;6.13;;
27804;SDS011;15183;51.350;11.102;2023-04-25T04:45:15;13.93;;;6.65;;
27804;SDS011;15183;51.350;11.102;2023-04-25T04:47:41;11.90;;;6.43;;
27804;SDS011;15183;51.350;11.102;2023-04-25T04:50:09;15.65;;;5.93;;
27804;SDS011;15183;51.350;11.102;2023-04-25T04:55:39;11.30;;;5.93;;
27804;SDS011;15183;51.350;11.102;2023-04-25T04:58:07;14.27;;;5.93;;
27804;SDS011;15183;51.350;11.102;2023-04-25T05:00:33;9.43;;;6.07;;
27804;SDS011;15183;51.350;11.102;2023-04-25T05:03:00;14.02;;;6.47;;
27804;SDS011;15183;51.350;11.102;2023-04-25T05:05:26;11.00;;;5.90;;
27804;SDS011;15183;51.350;11.102;2023-04-25T05:07:53;10.75;;;6.45;;
27804;SDS011;15183;51.350;11.102;2023-04-25T05:10:19;15.27;;;6.53;;
27804;SDS011;15183;51.350;11.102;2023-04-25T05:12:46;10.20;;;6.38;;
27804;SDS011;15183;51.350;11.102;2023-04-25T05:15:12;10.13;;;5.90;;
27804;SDS011;15183;51.350;11.102;2023-04-25T05:17:39;11.88;;;6.78;;
27804;SDS011;15183;51.350;11.102;2023-04-25T05:20:06;10.38;;;5.63;;
27804;SDS011;15183;51.350;11.102;2023-04-25T05:22:35;14.50;;;5.60;;
27804;SDS011;15183;51.350;11.102;2023-04-25T05:25:01;15.27;;;6.13;;
27804;SDS011;15183;51.350;11.102;2023-04-25T05:27:29;12.25;;;5.63;;
27804;SDS011;15183;51.350;11.102;2023-04-25T05:29:55;10.98;;;5.32;;
27804;SDS011;15183;51.350;11.102;2023-04-25T05:32:22;8.88;;;5.03;;
27804;SDS011;15183;51.350;11.102;2023-04-25T05:34:48;9.32;;;5.20;;
27804;SDS011;15183;51.350;11.102;2023-04-25T05:37:15;14.57;;;5.68;;
27804;SDS011;15183;51.350;11.102;2023-04-25T05:39:42;9.73;;;5.30;;
27804;SDS011;15183;51.350;11.102;2023-04-25T05:42:08;10.57;;;5.03;;
27804;SDS011;15183;51.350;11.102;2023-04-25T05:44:34;10.73;;;5.10;;
27804;SDS011;15183;51.350;11.102;2023-04-25T05:47:01;7.88;;;4.90;;
27804;SDS011;15183;51.350;11.102;2023-04-25T05:49:27;9.25;;;5.40;;
27804;SDS011;15183;51.350;11.102;2023-04-25T05:51:54;13.18;;;5.07;;
27804;SDS011;15183;51.350;11.102;2023-04-25T05:54:20;11.35;;;5.07;;
27804;SDS011;15183;51.350;11.102;2023-04-25T05:56:46;9.15;;;4.75;;
27804;SDS011;15183;51.350;11.102;2023-04-25T05:59:13;8.63;;;4.90;;
27804;SDS011;15183;51.350;11.102;2023-04-25T06:01:39;10.50;;;5.40;;
27804;SDS011;15183;51.350;11.102;2023-04-25T06:04:06;10.43;;;5.65;;
27804;SDS011;15183;51.350;11.102;2023-04-25T06:06:32;9.50;;;5.30;;
27804;SDS011;15183;51.350;11.102;2023-04-25T06:08:58;7.93;;;4.63;;
27804;SDS011;15183;51.350;11.102;2023-04-25T06:11:25;10.15;;;4.70;;
27804;SDS011;15183;51.350;11.102;2023-04-25T06:13:51;6.63;;;4.78;;
27804;SDS011;15183;51.350;11.102;2023-04-25T06:16:18;8.20;;;5.20;;
27804;SDS011;15183;51.350;11.102;2023-04-25T06:18:44;10.05;;;4.88;;
27804;SDS011;15183;51.350;11.102;2023-04-25T06:21:10;8.48;;;4.97;;
27804;SDS011;15183;51.350;11.102;2023-04-25T06:23:37;11.15;;;5.13;;
27804;SDS011;15183;51.350;11.102;2023-04-25T06:26:03;9.07;;;5.15;;
27804;SDS011;15183;51.350;11.102;2023-04-25T06:28:29;10.23;;;4.78;;
27804;SDS011;15183;51.350;11.102;2023-04-25T06:30:56;8.93;;;4.65;;
27804;SDS011;15183;51.350;11.102;2023-04-25T06:33:22;6.15;;;4.53;;
27804;SDS011;15183;51.350;11.102;2023-04-25T06:35:49;7.20;;;4.28;;
27804;SDS011;15183;51.350;11.102;2023-04-25T06:38:16;8.60;;;4.72;;
27804;SDS011;15183;51.350;11.102;2023-04-25T06:40:42;7.38;;;4.88;;
27804;SDS011;15183;51.350;11.102;2023-04-25T06:43:09;9.73;;;5.00;;
27804;SDS011;15183;51.350;11.102;2023-04-25T06:45:35;11.15;;;5.13;;
27804;SDS011;15183;51.350;11.102;2023-04-25T06:48:02;7.70;;;4.65;;
27804;SDS011;15183;51.350;11.102;2023-04-25T06:50:29;8.30;;;4.95;;
27804;SDS011;15183;51.350;11.102;2023-04-25T06:52:55;10.07;;;5.43;;
27804;SDS011;15183;51.350;11.102;2023-04-25T06:55:21;6.72;;;4.53;;
27804;SDS011;15183;51.350;11.102;2023-04-25T06:57:48;5.78;;;3.67;;
27804;SDS011;15183;51.350;11.102;2023-04-25T07:00:14;8.95;;;5.20;;
27804;SDS011;15183;51.350;11.102;2023-04-25T07:02:41;4.80;;;3.67;;
27804;SDS011;15183;51.350;11.102;2023-04-25T07:05:09;6.80;;;4.25;;
27804;SDS011;15183;51.350;11.102;2023-04-25T07:11:17;6.93;;;3.63;;
27804;SDS011;15183;51.350;11.102;2023-04-25T07:13:43;6.35;;;4.45;;
27804;SDS011;15183;51.350;11.102;2023-04-25T07:16:10;9.10;;;5.30;;
27804;SDS011;15183;51.350;11.102;2023-04-25T07:18:36;6.30;;;4.30;;
27804;SDS011;15183;51.350;11.102;2023-04-25T07:21:03;7.72;;;4.00;;
27804;SDS011;15183;51.350;11.102;2023-04-25T07:23:29;9.43;;;4.45;;
27804;SDS011;15183;51.350;11.102;2023-04-25T07:25:55;8.27;;;4.03;;
27804;SDS011;15183;51.350;11.102;2023-04-25T07:28:22;8.15;;;5.35;;
27804;SDS011;15183;51.350;11.102;2023-04-25T07:30:51;10.15;;;6.00;;
27804;SDS011;15183;51.350;11.102;2023-04-25T07:33:18;7.35;;;5.10;;
27804;SDS011;15183;51.350;11.102;2023-04-25T07:35:46;7.10;;;5.15;;
27804;SDS011;15183;51.350;11.102;2023-04-25T07:38:12;6.45;;;4.38;;
27804;SDS011;15183;51.350;11.102;2023-04-25T07:40:39;7.15;;;3.85;;
27804;SDS011;15183;51.350;11.102;2023-04-25T07:43:05;7.68;;;3.95;;
27804;SDS011;15183;51.350;11.102;2023-04-25T07:45:31;5.85;;;2.95;;
27804;SDS011;15183;51.350;11.102;2023-04-25T07:47:58;3.92;;;2.40;;
27804;SDS011;15183;51.350;11.102;2023-04-25T07:50:24;2.53;;;1.77;;
27804;SDS011;15183;51.350;11.102;2023-04-25T07:52:51;4.78;;;2.00;;
27804;SDS011;15183;51.350;11.102;2023-04-25T07:55:17;2.65;;;1.98;;
27804;SDS011;15183;51.350;11.102;2023-04-25T07:57:44;3.55;;;1.40;;
27804;SDS011;15183;51.350;11.102;2023-04-25T08:00:10;7.70;;;5.20;;
27804;SDS011;15183;51.350;11.102;2023-04-25T08:02:38;5.15;;;3.67;;
27804;SDS011;15183;51.350;11.102;2023-04-25T08:05:04;1.95;;;1.38;;
27804;SDS011;15183;51.350;11.102;2023-04-25T08:07:33;2.03;;;1.70;;
27804;SDS011;15183;51.350;11.102;2023-04-25T08:10:00;3.38;;;1.75;;
27804;SDS011;15183;51.350;11.102;2023-04-25T08:12:27;6.22;;;3.15;;
27804;SDS011;15183;51.350;11.102;2023-04-25T08:14:53;6.53;;;2.90;;
27804;SDS011;15183;51.350;11.102;2023-04-25T08:17:20;8.38;;;3.17;;
27804;SDS011;15183;51.350;11.102;2023-04-25T08:19:46;5.10;;;1.80;;
27804;SDS011;15183;51.350;11.102;2023-04-25T08:22:12;5.93;;;2.53;;
27804;SDS011;15183;51.350;11.102;2023-04-25T08:24:40;9.57;;;3.83;;
27804;SDS011;15183;51.350;11.102;2023-04-25T08:27:07;5.93;;;2.42;;
27804;SDS011;15183;51.350;11.102;2023-04-25T08:29:34;8.70;;;1.73;;
27804;SDS011;15183;51.350;11.102;2023-04-25T08:32:00;7.10;;;2.00;;
27804;SDS011;15183;51.350;11.102;2023-04-25T08:34:26;7.60;;;3.17;;
27804;SDS011;15183;51.350;11.102;2023-04-25T08:36:53;5.03;;;2.65;;
27804;SDS011;15183;51.350;11.102;2023-04-25T08:39:19;10.38;;;5.00;;
27804;SDS011;15183;51.350;11.102;2023-04-25T08:41:46;8.98;;;2.88;;
27804;SDS011;15183;51.350;11.102;2023-04-25T08:44:13;20.45;;;6.13;;
27804;SDS011;15183;51.350;11.102;2023-04-25T08:46:40;9.32;;;5.03;;
27804;SDS011;15183;51.350;11.102;2023-04-25T08:49:07;16.50;;;7.88;;
27804;SDS011;15183;51.350;11.102;2023-04-25T08:51:34;25.90;;;13.15;;
27804;SDS011;15183;51.350;11.102;2023-04-25T08:54:10;14.65;;;6.40;;
27804;SDS011;15183;51.350;11.102;2023-04-25T08:56:44;15.93;;;6.90;;
27804;SDS011;15183;51.350;11.102;2023-04-25T08:59:13;16.40;;;9.20;;
27804;SDS011;15183;51.350;11.102;2023-04-25T09:01:40;19.17;;;9.52;;
27804;SDS011;15183;51.350;11.102;2023-04-25T09:04:06;10.88;;;3.92;;
27804;SDS011;15183;51.350;11.102;2023-04-25T09:06:33;12.63;;;6.05;;
27804;SDS011;15183;51.350;11.102;2023-04-25T09:09:01;7.38;;;3.60;;
27804;SDS011;15183;51.350;11.102;2023-04-25T09:11:33;14.27;;;7.15;;
27804;SDS011;15183;51.350;11.102;2023-04-25T09:14:38;11.88;;;4.95;;
27804;SDS011;15183;51.350;11.102;2023-04-25T09:19:23;10.75;;;3.35;;
27804;SDS011;15183;51.350;11.102;2023-04-25T09:22:11;13.98;;;3.58;;
27804;SDS011;15183;51.350;11.102;2023-04-25T09:24:42;10.65;;;2.97;;
27804;SDS011;15183;51.350;11.102;2023-04-25T09:27:12;7.47;;;3.00;;
27804;SDS011;15183;51.350;11.102;2023-04-25T09:29:44;8.68;;;3.25;;
27804;SDS011;15183;51.350;11.102;2023-04-25T09:32:22;7.82;;;3.03;;
27804;SDS011;15183;51.350;11.102;2023-04-25T09:34:56;9.68;;;2.80;;
27804;SDS011;15183;51.350;11.102;2023-04-25T09:37:27;9.32;;;2.70;;
27804;SDS011;15183;51.350;11.102;2023-04-25T09:39:56;11.43;;;3.90;;
27804;SDS011;15183;51.350;11.102;2023-04-25T09:42:31;9.20;;;2.47;;
27804;SDS011;15183;51.350;11.102;2023-04-25T09:45:00;6.05;;;2.45;;
27804;SDS011;15183;51.350;11.102;2023-04-25T09:47:27;9.95;;;2.20;;
27804;SDS011;15183;51.350;11.102;2023-04-25T09:49:55;8.90;;;2.15;;
27804;SDS011;15183;51.350;11.102;2023-04-25T09:52:22;7.88;;;2.55;;
27804;SDS011;15183;51.350;11.102;2023-04-25T09:54:50;11.02;;;3.33;;
27804;SDS011;15183;51.350;11.102;2023-04-25T09:57:21;11.25;;;3.45;;
27804;SDS011;15183;51.350;11.102;2023-04-25T09:59:51;10.23;;;2.72;;
27804;SDS011;15183;51.350;11.102;2023-04-25T10:02:21;11.73;;;2.28;;
27804;SDS011;15183;51.350;11.102;2023-04-25T10:04:51;5.18;;;1.70;;
27804;SDS011;15183;51.350;11.102;2023-04-25T10:07:21;7.70;;;2.50;;
27804;SDS011;15183;51.350;11.102;2023-04-25T10:10:03;7.78;;;2.40;;
27804;SDS011;15183;51.350;11.102;2023-04-25T10:12:32;7.20;;;2.33;;
27804;SDS011;15183;51.350;11.102;2023-04-25T10:14:59;8.02;;;2.67;;
27804;SDS011;15183;51.350;11.102;2023-04-25T10:17:26;6.88;;;1.83;;
27804;SDS011;15183;51.350;11.102;2023-04-25T10:19:54;6.53;;;2.10;;
27804;SDS011;15183;51.350;11.102;2023-04-25T10:22:23;4.00;;;1.65;;
27804;SDS011;15183;51.350;11.102;2023-04-25T10:25:01;8.85;;;1.70;;
27804;SDS011;15183;51.350;11.102;2023-04-25T10:27:31;9.95;;;2.10;;
27804;SDS011;15183;51.350;11.102;2023-04-25T10:32:43;8.85;;;1.98;;
27804;SDS011;15183;51.350;11.102;2023-04-25T10:35:23;6.35;;;1.65;;
27804;SDS011;15183;51.350;11.102;2023-04-25T10:37:56;5.57;;;1.70;;
27804;SDS011;15183;51.350;11.102;2023-04-25T10:40:31;8.88;;;2.13;;
27804;SDS011;15183;51.350;11.102;2023-04-25T10:43:42;6.75;;;2.03;;
27804;SDS011;15183;51.350;11.102;2023-04-25T10:45:59;5.65;;;1.90;;
27804;SDS011;15183;51.350;11.102;2023-04-25T10:48:26;4.88;;;1.75;;
27804;SDS011;15183;51.350;11.102;2023-04-25T10:51:39;5.70;;;1.60;;
27804;SDS011;15183;51.350;11.102;2023-04-25T10:54:03;7.32;;;2.25;;
27804;SDS011;15183;51.350;11.102;2023-04-25T10:59:10;6.93;;;1.90;;
27804;SDS011;15183;51.350;11.102;2023-04-25T11:02:02;6.95;;;1.63;;
27804;SDS011;15183;51.350;11.102;2023-04-25T11:04:36;9.48;;;2.20;;
27804;SDS011;15183;51.350;11.102;2023-04-25T11:10:03;5.45;;;1.40;;
27804;SDS011;15183;51.350;11.102;2023-04-25T11:12:31;6.00;;;1.30;;
27804;SDS011;15183;51.350;11.102;2023-04-25T11:14:59;10.93;;;2.72;;
27804;SDS011;15183;51.350;11.102;2023-04-25T11:17:26;4.57;;;1.25;;
27804;SDS011;15183;51.350;11.102;2023-04-25T11:19:53;5.03;;;1.42;;
27804;SDS011;15183;51.350;11.102;2023-04-25T11:22:22;5.03;;;1.42;;
27804;SDS011;15183;51.350;11.102;2023-04-25T11:24:48;5.05;;;1.33;;
27804;SDS011;15183;51.350;11.102;2023-04-25T11:27:16;5.72;;;1.35;;
27804;SDS011;15183;51.350;11.102;2023-04-25T11:29:42;5.82;;;1.80;;
27804;SDS011;15183;51.350;11.102;2023-04-25T11:32:09;4.90;;;1.90;;
27804;SDS011;15183;51.350;11.102;2023-04-25T11:34:35;8.93;;;2.58;;
27804;SDS011;15183;51.350;11.102;2023-04-25T11:37:02;3.85;;;1.77;;
27804;SDS011;15183;51.350;11.102;2023-04-25T11:39:29;4.85;;;1.83;;
27804;SDS011;15183;51.350;11.102;2023-04-25T11:41:56;6.93;;;1.70;;
27804;SDS011;15183;51.350;11.102;2023-04-25T11:44:22;6.15;;;2.20;;
27804;SDS011;15183;51.350;11.102;2023-04-25T11:46:49;7.32;;;1.88;;
27804;SDS011;15183;51.350;11.102;2023-04-25T11:49:15;7.00;;;1.60;;
27804;SDS011;15183;51.350;11.102;2023-04-25T11:51:44;8.13;;;1.88;;
27804;SDS011;15183;51.350;11.102;2023-04-25T11:54:13;7.85;;;1.60;;
27804;SDS011;15183;51.350;11.102;2023-04-25T11:56:41;8.32;;;1.70;;
27804;SDS011;15183;51.350;11.102;2023-04-25T11:59:11;4.93;;;1.45;;
27804;SDS011;15183;51.350;11.102;2023-04-25T12:01:39;6.05;;;1.42;;
27804;SDS011;15183;51.350;11.102;2023-04-25T12:04:14;5.07;;;1.52;;
27804;SDS011;15183;51.350;11.102;2023-04-25T12:06:43;4.15;;;1.20;;
27804;SDS011;15183;51.350;11.102;2023-04-25T12:09:13;7.78;;;1.63;;
27804;SDS011;15183;51.350;11.102;2023-04-25T12:11:53;9.70;;;1.13;;
27804;SDS011;15183;51.350;11.102;2023-04-25T12:14:25;4.78;;;1.20;;
27804;SDS011;15183;51.350;11.102;2023-04-25T12:17:00;2.35;;;1.00;;
27804;SDS011;15183;51.350;11.102;2023-04-25T12:19:33;4.38;;;1.38;;
27804;SDS011;15183;51.350;11.102;2023-04-25T12:22:01;8.73;;;1.98;;
27804;SDS011;15183;51.350;11.102;2023-04-25T12:24:29;7.53;;;1.90;;
27804;SDS011;15183;51.350;11.102;2023-04-25T12:26:59;5.90;;;1.50;;
27804;SDS011;15183;51.350;11.102;2023-04-25T12:29:32;4.57;;;1.35;;
27804;SDS011;15183;51.350;11.102;2023-04-25T12:31:59;5.32;;;1.50;;
27804;SDS011;15183;51.350;11.102;2023-04-25T12:34:29;6.45;;;1.30;;
27804;SDS011;15183;51.350;11.102;2023-04-25T12:36:57;6.35;;;1.58;;
27804;SDS011;15183;51.350;11.102;2023-04-25T12:39:24;12.40;;;1.88;;
27804;SDS011;15183;51.350;11.102;2023-04-25T12:41:51;3.25;;;1.35;;
27804;SDS011;15183;51.350;11.102;2023-04-25T12:44:19;4.18;;;1.63;;
27804;SDS011;15183;51.350;11.102;2023-04-25T12:46:46;3.50;;;1.55;;
27804;SDS011;15183;51.350;11.102;2023-04-25T12:49:13;6.50;;;1.50;;
27804;SDS011;15183;51.350;11.102;2023-04-25T12:51:40;5.03;;;1.85;;
27804;SDS011;15183;51.350;11.102;2023-04-25T12:54:07;6.45;;;2.42;;
27804;SDS011;15183;51.350;11.102;2023-04-25T12:56:34;5.45;;;1.90;;
27804;SDS011;15183;51.350;11.102;2023-04-25T12:59:01;7.15;;;1.83;;
27804;SDS011;15183;51.350;11.102;2023-04-25T13:01:28;5.47;;;1.52;;
27804;SDS011;15183;51.350;11.102;2023-04-25T13:03:55;5.93;;;1.80;;
27804;SDS011;15183;51.350;11.102;2023-04-25T13:06:22;7.03;;;1.70;;
27804;SDS011;15183;51.350;11.102;2023-04-25T13:08:48;8.60;;;1.83;;
27804;SDS011;15183;51.350;11.102;2023-04-25T13:11:15;4.10;;;2.08;;
27804;SDS011;15183;51.350;11.102;2023-04-25T13:13:41;4.00;;;1.92;;
27804;SDS011;15183;51.350;11.102;2023-04-25T13:16:09;6.28;;;2.58;;
27804;SDS011;15183;51.350;11.102;2023-04-25T13:18:35;8.68;;;2.85;;
27804;SDS011;15183;51.350;11.102;2023-04-25T13:21:01;6.03;;;2.45;;
27804;SDS011;15183;51.350;11.102;2023-04-25T13:23:29;5.13;;;2.10;;
27804;SDS011;15183;51.350;11.102;2023-04-25T13:25:56;5.22;;;2.00;;
27804;SDS011;15183;51.350;11.102;2023-04-25T13:28:23;3.22;;;1.63;;
27804;SDS011;15183;51.350;11.102;2023-04-25T13:30:50;7.45;;;2.00;;
27804;SDS011;15183;51.350;11.102;2023-04-25T13:33:17;5.30;;;1.67;;
27804;SDS011;15183;51.350;11.102;2023-04-25T13:35:44;5.53;;;1.63;;
27804;SDS011;15183;51.350;11.102;2023-04-25T13:38:13;8.93;;;3.05;;
27804;SDS011;15183;51.350;11.102;2023-04-25T13:40:39;6.55;;;2.13;;
27804;SDS011;15183;51.350;11.102;2023-04-25T13:43:05;5.30;;;2.00;;
27804;SDS011;15183;51.350;11.102;2023-04-25T13:45:32;7.07;;;2.10;;
27804;SDS011;15183;51.350;11.102;2023-04-25T13:47:58;6.82;;;2.65;;
27804;SDS011;15183;51.350;11.102;2023-04-25T13:50:26;9.25;;;2.90;;
27804;SDS011;15183;51.350;11.102;2023-04-25T13:52:52;6.10;;;2.42;;
27804;SDS011;15183;51.350;11.102;2023-04-25T13:55:18;7.53;;;3.03;;
27804;SDS011;15183;51.350;11.102;2023-04-25T13:57:45;5.15;;;1.80;;
27804;SDS011;15183;51.350;11.102;2023-04-25T14:00:12;5.55;;;2.70;;
27804;SDS011;15183;51.350;11.102;2023-04-25T14:02:39;5.43;;;1.88;;
27804;SDS011;15183;51.350;11.102;2023-04-25T14:05:24;4.20;;;1.70;;
27804;SDS011;15183;51.350;11.102;2023-04-25T14:07:50;8.18;;;2.33;;
27804;SDS011;15183;51.350;11.102;2023-04-25T14:10:22;4.80;;;2.00;;
27804;SDS011;15183;51.350;11.102;2023-04-25T14:12:48;4.38;;;1.63;;
27804;SDS011;15183;51.350;11.102;2023-04-25T14:15:14;6.28;;;2.17;;
27804;SDS011;15183;51.350;11.102;2023-04-25T14:17:41;6.65;;;2.33;;
27804;SDS011;15183;51.350;11.102;2023-04-25T14:20:08;6.25;;;1.85;;
27804;SDS011;15183;51.350;11.102;2023-04-25T14:22:36;6.10;;;1.73;;
27804;SDS011;15183;51.350;11.102;2023-04-25T14:25:08;6.10;;;1.65;;
27804;SDS011;15183;51.350;11.102;2023-04-25T14:27:35;6.32;;;3.13;;
27804;SDS011;15183;51.350;11.102;2023-04-25T14:30:02;8.65;;;2.50;;
27804;SDS011;15183;51.350;11.102;2023-04-25T14:32:30;8.52;;;1.88;;
27804;SDS011;15183;51.350;11.102;2023-04-25T14:34:57;4.28;;;2.03;;
27804;SDS011;15183;51.350;11.102;2023-04-25T14:37:24;5.07;;;1.63;;
27804;SDS011;15183;51.350;11.102;2023-04-25T14:39:50;7.10;;;2.70;;
27804;SDS011;15183;51.350;11.102;2023-04-25T14:42:16;7.13;;;2.25;;
27804;SDS011;15183;51.350;11.102;2023-04-25T14:44:43;5.68;;;1.98;;
27804;SDS011;15183;51.350;11.102;2023-04-25T14:47:09;7.90;;;2.45;;
27804;SDS011;15183;51.350;11.102;2023-04-25T14:49:36;6.13;;;1.83;;
27804;SDS011;15183;51.350;11.102;2023-04-25T14:52:02;7.85;;;1.83;;
27804;SDS011;15183;51.350;11.102;2023-04-25T14:54:29;8.80;;;2.33;;
27804;SDS011;15183;51.350;11.102;2023-04-25T14:56:55;4.68;;;1.92;;
27804;SDS011;15183;51.350;11.102;2023-04-25T14:59:22;5.32;;;2.03;;
27804;SDS011;15183;51.350;11.102;2023-04-25T15:01:48;8.27;;;2.05;;